< Cyclone 199803 1998 Season Cyclone 199805 >
Cyclone 199804 (KATRINA)
General InformationDetailed Track InformationTrack Information on Google MapsList of All Images || ResourceGoogle EarthGE AnimationAtom FeedGeoJSON
Detalied Best Track Wind (Time Zone = UTC)
Year Month Day Hour Lat. Long. Wind (kt) Gust (kt) Direc. of Major Storm Axis Radius of Major Storm Axis (nm) Radius of Minor Storm Axis (nm) Direc. of Major Gale Axis Radius of Major Gale Axis (nm) Radius of Minor Gale Axis (nm) Image
1998 1 2 00 -14.9 152.0 41 -1 symmetric - - symmetric - - Image
1998 1 2 06 -15.4 152.5 41 -1 symmetric - - symmetric - - Image
1998 1 2 12 -15.9 153.3 41 -1 symmetric - - symmetric - - Image
1998 1 2 18 -16.6 153.2 41 -1 symmetric - - symmetric - - Image
1998 1 3 00 -16.8 152.3 41 -1 symmetric - - symmetric - - Image
1998 1 3 06 -16.3 151.9 41 -1 symmetric - - symmetric - - Image
1998 1 3 12 -15.6 151.8 41 -1 symmetric - - symmetric - - Image
1998 1 3 18 -15.0 152.3 45 -1 symmetric - - symmetric - - Image
1998 1 4 00 -14.8 152.7 45 -1 symmetric - - symmetric - - Image
1998 1 4 06 -14.8 153.1 45 -1 symmetric - - symmetric - - Image
1998 1 4 12 -14.8 153.5 45 -1 symmetric - - symmetric - - Image
1998 1 4 18 -14.8 153.8 45 -1 symmetric - - symmetric - - Image
1998 1 5 00 -15.1 154.4 45 -1 symmetric - - symmetric - - Image
1998 1 5 06 -15.3 155.1 45 -1 symmetric - - symmetric - - Image
1998 1 5 12 -15.1 155.7 45 -1 symmetric - - symmetric - - Image
1998 1 5 18 -14.7 156.4 51 -1 symmetric - - symmetric - - Image
1998 1 6 00 -14.4 156.9 51 -1 symmetric - - symmetric - - Image
1998 1 6 06 -14.1 157.5 51 -1 symmetric - - symmetric - - Image
1998 1 6 12 -13.6 158.3 45 -1 symmetric - - symmetric - - Image
1998 1 6 18 -13.1 159.0 45 -1 symmetric - - symmetric - - Image
1998 1 7 00 -12.6 159.7 54 -1 symmetric - - symmetric - - Image
1998 1 7 06 -12.5 161.0 60 -1 symmetric - - symmetric - - Image
1998 1 7 12 -12.7 161.8 60 -1 symmetric - - symmetric - - Image
1998 1 7 18 -13.0 162.2 60 -1 symmetric - - symmetric - - Image
1998 1 8 00 -13.4 163.0 60 -1 symmetric - - symmetric - - Image
1998 1 8 06 -14.0 163.9 60 -1 symmetric - - symmetric - - Image
1998 1 8 12 -14.4 164.5 60 -1 symmetric - - symmetric - - Image
1998 1 8 18 -14.9 164.5 60 -1 symmetric - - symmetric - - Image
1998 1 9 00 -15.1 164.7 64 -1 symmetric - - symmetric - - Image
1998 1 9 06 -15.6 164.9 64 -1 symmetric - - symmetric - - Image
1998 1 9 12 -15.7 165.0 70 -1 symmetric - - symmetric - - Image
1998 1 9 18 -15.7 164.7 80 -1 symmetric - - symmetric - - Image
1998 1 10 00 -15.6 164.3 80 -1 symmetric - - symmetric - - Image
1998 1 10 06 -15.4 164.0 80 -1 symmetric - - symmetric - - Image
1998 1 10 12 -15.3 163.2 80 -1 symmetric - - symmetric - - Image
1998 1 10 18 -14.9 162.5 76 -1 symmetric - - symmetric - - Image
1998 1 11 00 -14.7 162.0 76 -1 symmetric - - symmetric - - Image
1998 1 11 06 -14.4 161.0 70 -1 symmetric - - symmetric - - Image
1998 1 11 12 -14.1 160.2 64 -1 symmetric - - symmetric - - Image
1998 1 11 18 -13.8 159.9 64 -1 symmetric - - symmetric - - Image
1998 1 12 00 -13.3 159.8 64 -1 symmetric - - symmetric - - Image
1998 1 12 06 -13.1 159.6 64 -1 symmetric - - symmetric - - Image
1998 1 12 12 -13.2 158.7 64 -1 symmetric - - symmetric - - Image
1998 1 12 18 -13.5 158.0 64 -1 symmetric - - symmetric - - Image
1998 1 13 00 -13.6 157.2 64 -1 symmetric - - symmetric - - Image
1998 1 13 06 -13.8 156.3 64 -1 symmetric - - symmetric - - Image
1998 1 13 12 -13.7 155.4 64 -1 symmetric - - symmetric - - Image
1998 1 13 18 -13.6 154.3 64 -1 symmetric - - symmetric - - Image
1998 1 14 00 -13.6 153.3 64 -1 symmetric - - symmetric - - Image
1998 1 14 06 -13.5 152.4 64 -1 symmetric - - symmetric - - Image
1998 1 14 12 -13.5 151.6 64 -1 symmetric - - symmetric - - Image
1998 1 14 18 -13.6 150.2 80 -1 symmetric - - symmetric - - Image
1998 1 15 00 -13.6 150.2 80 -1 symmetric - - symmetric - - Image
1998 1 15 06 -13.5 150.0 86 -1 symmetric - - symmetric - - Image
1998 1 15 12 -13.9 149.7 89 -1 symmetric - - symmetric - - Image
1998 1 15 18 -14.4 149.4 89 -1 symmetric - - symmetric - - Image
1998 1 16 00 -15.0 149.1 89 -1 symmetric - - symmetric - - Image
1998 1 16 06 -15.2 149.2 86 -1 symmetric - - symmetric - - Image
1998 1 16 12 -15.6 149.0 80 -1 symmetric - - symmetric - - Image
1998 1 16 18 -15.7 149.0 80 -1 symmetric - - symmetric - - Image
1998 1 17 00 -16.0 148.9 64 -1 symmetric - - symmetric - - Image
1998 1 17 06 -16.3 148.6 54 -1 symmetric - - symmetric - - Image
1998 1 17 12 -16.5 148.3 54 -1 symmetric - - symmetric - - Image
1998 1 17 18 -16.2 148.4 54 -1 symmetric - - symmetric - - Image
1998 1 18 00 -16.5 149.0 51 -1 symmetric - - symmetric - - Image
1998 1 18 06 -16.6 149.3 51 -1 symmetric - - symmetric - - Image
1998 1 18 12 -16.6 149.7 51 -1 symmetric - - symmetric - - Image
1998 1 18 18 -16.7 149.9 54 -1 symmetric - - symmetric - - Image
1998 1 19 00 -17.0 150.1 54 -1 symmetric - - symmetric - - Image
1998 1 19 06 -17.2 150.8 54 -1 symmetric - - symmetric - - Image
1998 1 19 12 -17.5 151.5 54 -1 symmetric - - symmetric - - Image
1998 1 19 18 -17.8 152.1 54 -1 symmetric - - symmetric - - Image
1998 1 20 00 -18.3 152.6 54 -1 symmetric - - symmetric - - Image
1998 1 20 06 -19.3 153.0 64 -1 symmetric - - symmetric - - Image
1998 1 20 12 -20.0 154.0 64 -1 symmetric - - symmetric - - Image
1998 1 20 18 -20.4 154.0 51 -1 symmetric - - symmetric - - Image
1998 1 21 00 -20.9 154.1 51 -1 symmetric - - symmetric - - Image
1998 1 21 06 -21.4 154.5 45 -1 symmetric - - symmetric - - Image
1998 1 21 12 -21.8 154.9 45 -1 symmetric - - symmetric - - Image
1998 1 21 18 -21.8 155.2 51 -1 symmetric - - symmetric - - Image
1998 1 22 00 -21.9 155.4 51 -1 symmetric - - symmetric - - Image
1998 1 22 06 -21.7 155.9 45 -1 symmetric - - symmetric - - Image
1998 1 22 12 -21.5 156.1 45 -1 symmetric - - symmetric - - Image
1998 1 22 18 -20.9 156.2 45 -1 symmetric - - symmetric - - Image
1998 1 23 00 -20.3 156.1 45 -1 symmetric - - symmetric - - Image
1998 1 23 06 -19.6 155.2 41 -1 symmetric - - symmetric - - Image
1998 1 23 12 -18.9 154.8 41 -1 symmetric - - symmetric - - Image
1998 1 23 18 -18.4 154.4 41 -1 symmetric - - symmetric - - Image
1998 1 24 00 -18.0 153.9 41 -1 symmetric - - symmetric - - Image
1998 1 24 06 -17.9 153.1 41 -1 symmetric - - symmetric - - Image
< Cyclone 199803 1998 Season Cyclone 199805 >

Help